Time;durP1;ratioP1;P1;durP2;ratioP2;P2;SDS_P1;SDS_P2;PMS_P1;PMS_P2;Temp;Humidity;BMP_temperature;BMP_pressure;BME280_temperature;BME280_humidity;BME280_pressure;Samples;Min_cycle;Max_cycle;Signal;HPM_P1;HPM_P2
2024/04/01 00:03:20;;;;;;;;;54.00;44.00;;;;;;;;6490109;47;8949;-55
2024/04/01 00:09:22;;;;;;;;;55.67;43.00;;;;;;;;6490746;39;9561;-52
2024/04/01 00:15:23;;;;;;;;;52.25;45.00;;;;;;;;6493514;39;9622;-52
2024/04/01 00:21:25;;;;;;;;;52.25;42.75;;;;;;;;6491913;46;8879;-54
2024/04/01 00:27:26;;;;;;;;;53.67;43.00;;;;;;;;6492154;39;8866;-55
2024/04/01 00:33:27;;;;;;;;;53.33;43.67;;;;;;;;6492485;31;8887;-52
2024/04/01 00:39:28;;;;;;;;;56.00;44.50;;;;;;;;6491514;39;9599;-53
2024/04/01 00:45:29;;;;;;;;;52.50;43.75;;;;;;;;6492311;39;8986;-53
2024/04/01 00:51:31;;;;;;;;;54.25;44.25;;;;;;;;6491461;39;8896;-54
2024/04/01 00:57:32;;;;;;;;;51.00;43.25;;;;;;;;6491773;46;8993;-55
2024/04/01 01:03:35;;;;;;;;;46.00;38.33;;;;;;;;6493018;39;8983;-55
2024/04/01 01:09:39;;;;;;;;;51.33;41.67;;;;;;;;6492770;31;8985;-54
2024/04/01 01:15:41;;;;;;;;;51.67;41.67;;;;;;;;6493079;39;9004;-54
2024/04/01 01:21:43;;;;;;;;;51.67;43.33;;;;;;;;6491363;39;8906;-57
2024/04/01 01:27:44;;;;;;;;;45.00;38.67;;;;;;;;6492150;39;8917;-54
2024/04/01 01:33:47;;;;;;;;;56.75;43.50;;;;;;;;6492743;39;8855;-53
2024/04/01 01:39:48;;;;;;;;;54.00;43.67;;;;;;;;6500607;36;8927;-54
2024/04/01 01:45:49;;;;;;;;;55.33;43.67;;;;;;;;6492268;39;9004;-54
2024/04/01 01:51:52;;;;;;;;;53.25;42.75;;;;;;;;6490963;39;8904;-55
2024/04/01 01:57:53;;;;;;;;;48.00;42.33;;;;;;;;6491553;39;9014;-53
2024/04/01 02:03:54;;;;;;;;;51.67;40.67;;;;;;;;6492118;46;8947;-51
2024/04/01 02:09:55;;;;;;;;;45.33;39.00;;;;;;;;6491306;39;8848;-53
2024/04/01 02:16:07;;;;;;;;;49.00;41.67;;;;;;;;6492237;39;9401;-54
2024/04/01 02:22:12;;;;;;;;;46.67;40.00;;;;;;;;6491353;39;8936;-50
2024/04/01 02:28:15;;;;;;;;;53.33;43.33;;;;;;;;6491048;46;9090;-52
2024/04/01 02:34:16;;;;;;;;;50.67;40.33;;;;;;;;6491505;39;9662;-53
2024/04/01 02:40:20;;;;;;;;;51.00;42.25;;;;;;;;6490341;39;9074;-56
2024/04/01 02:46:21;;;;;;;;;47.67;37.67;;;;;;;;6491656;39;9027;-54
2024/04/01 02:52:24;;;;;;;;;47.50;38.50;;;;;;;;6490626;46;8896;-50
2024/04/01 02:58:25;;;;;;;;;46.33;37.00;;;;;;;;6491703;31;9055;-56
2024/04/01 03:04:26;;;;;;;;;49.33;40.33;;;;;;;;6491122;46;9066;-53
2024/04/01 03:10:27;;;;;;;;;43.67;37.33;;;;;;;;6490437;39;9058;-54
2024/04/01 03:16:29;;;;;;;;;41.33;37.00;;;;;;;;6491409;46;8876;-54
2024/04/01 03:22:30;;;;;;;;;49.25;39.50;;;;;;;;6490473;46;8888;-51
2024/04/01 03:28:31;;;;;;;;;47.00;39.25;;;;;;;;6491257;39;8860;-53
2024/04/01 03:34:32;;;;;;;;;47.50;40.50;;;;;;;;6491100;39;9042;-55
2024/04/01 03:40:41;;;;;;;;;53.75;44.00;;;;;;;;6490021;46;8995;-55
2024/04/01 03:46:43;;;;;;;;;36.00;32.50;;;;;;;;6491177;31;8924;-53
2024/04/01 03:52:45;;;;;;;;;40.33;36.33;;;;;;;;6490130;39;8974;-54
2024/04/01 03:58:49;;;;;;;;;46.75;39.00;;;;;;;;6490788;39;8879;-55
2024/04/01 04:04:50;;;;;;;;;46.33;38.00;;;;;;;;6471316;47;9010;-52
2024/04/01 04:10:53;;;;;;;;;49.00;40.00;;;;;;;;6492704;39;8855;-54
2024/04/01 04:16:55;;;;;;;;;43.00;37.33;;;;;;;;6493074;39;8987;-53
2024/04/01 04:22:55;;;;;;;;;38.00;34.33;;;;;;;;6492440;39;9479;-55
2024/04/01 04:28:58;;;;;;;;;44.33;38.33;;;;;;;;6493585;39;8942;-55
2024/04/01 04:35:00;;;;;;;;;50.67;41.00;;;;;;;;6491383;47;8913;-56
2024/04/01 04:41:01;;;;;;;;;50.00;40.00;;;;;;;;6492892;39;8925;-53
2024/04/01 04:47:02;;;;;;;;;46.50;39.75;;;;;;;;6492892;39;9045;-54
2024/04/01 04:53:03;;;;;;;;;47.67;40.67;;;;;;;;6492008;39;9515;-57
2024/04/01 04:59:05;;;;;;;;;51.00;41.00;;;;;;;;6495558;39;8859;-54
2024/04/01 05:05:08;;;;;;;;;49.50;39.25;;;;;;;;6494534;31;9091;-54
2024/04/01 05:11:09;;;;;;;;;52.67;44.67;;;;;;;;6495574;31;9030;-57
2024/04/01 05:17:12;;;;;;;;;52.67;41.67;;;;;;;;6494624;31;8956;-56
2024/04/01 05:23:13;;;;;;;;;51.75;41.50;;;;;;;;6493431;46;9033;-55
2024/04/01 05:29:14;;;;;;;;;58.75;47.00;;;;;;;;6492917;39;9622;-56
2024/04/01 05:35:17;;;;;;;;;56.25;44.50;;;;;;;;6492280;31;9665;-57
2024/04/01 05:41:18;;;;;;;;;57.67;44.00;;;;;;;;6493154;46;9006;-59
2024/04/01 05:47:19;;;;;;;;;56.67;44.67;;;;;;;;6494821;39;8953;-55
2024/04/01 05:53:22;;;;;;;;;49.00;42.67;;;;;;;;6492517;39;9558;-57
2024/04/01 05:59:25;;;;;;;;;51.67;42.33;;;;;;;;6493386;39;8995;-57
2024/04/01 06:05:28;;;;;;;;;59.00;47.67;;;;;;;;6491574;46;9098;-58
2024/04/01 06:11:30;;;;;;;;;48.00;40.33;;;;;;;;6491772;39;9064;-57
2024/04/01 06:17:32;;;;;;;;;36.67;33.33;;;;;;;;6447168;39;9527;-57
2024/04/01 06:23:34;;;;;;;;;36.33;34.33;;;;;;;;6492558;46;9011;-56
2024/04/01 06:29:38;;;;;;;;;34.33;33.00;;;;;;;;6493168;46;8922;-55
2024/04/01 06:35:39;;;;;;;;;40.33;36.33;;;;;;;;6493396;39;9068;-57
2024/04/01 06:41:42;;;;;;;;;43.00;37.00;;;;;;;;6487482;31;8975;-59
2024/04/01 06:47:46;;;;;;;;;43.33;36.00;;;;;;;;6492155;46;9108;-57
2024/04/01 06:53:48;;;;;;;;;42.00;34.00;;;;;;;;6490171;39;9493;-56
2024/04/01 06:59:50;;;;;;;;;33.50;31.00;;;;;;;;6492584;31;8867;-57
2024/04/01 07:05:51;;;;;;;;;32.33;29.00;;;;;;;;6491003;39;8969;-55
2024/04/01 07:11:54;;;;;;;;;31.00;28.33;;;;;;;;6491223;39;9064;-55
2024/04/01 07:17:56;;;;;;;;;18.67;17.67;;;;;;;;6489967;39;9621;-59
2024/04/01 07:23:59;;;;;;;;;35.67;32.33;;;;;;;;6490161;39;9015;-58
2024/04/01 07:30:02;;;;;;;;;36.00;30.33;;;;;;;;6489303;46;8923;-59
2024/04/01 07:36:05;;;;;;;;;44.00;37.33;;;;;;;;6488294;39;8985;-57
2024/04/01 07:42:06;;;;;;;;;45.33;36.00;;;;;;;;6488882;46;9024;-56
2024/04/01 07:48:07;;;;;;;;;49.33;41.67;;;;;;;;6488650;39;9022;-58
2024/04/01 07:54:11;;;;;;;;;51.00;43.00;;;;;;;;6487715;39;9028;-56
2024/04/01 08:00:13;;;;;;;;;43.67;35.67;;;;;;;;6488938;46;8899;-55
2024/04/01 08:06:16;;;;;;;;;58.00;45.33;;;;;;;;6489579;39;8963;-58
2024/04/01 08:12:18;;;;;;;;;77.25;69.75;;;;;;;;6488932;47;8968;-59
2024/04/01 08:18:20;;;;;;;;;28.67;25.33;;;;;;;;6486106;46;8935;-59
2024/04/01 08:24:21;;;;;;;;;25.75;23.00;;;;;;;;6487412;47;9056;-57
2024/04/01 08:30:22;;;;;;;;;46.75;38.50;;;;;;;;6489790;39;9042;-59
2024/04/01 08:36:25;;;;;;;;;27.25;24.75;;;;;;;;6492453;31;9560;-59
2024/04/01 08:42:30;;;;;;;;;22.25;17.50;;;;;;;;6491455;31;9653;-59
2024/04/01 08:48:35;;;;;;;;;46.25;37.00;;;;;;;;6491509;39;8921;-56
2024/04/01 08:54:41;;;;;;;;;17.75;16.00;;;;;;;;6491368;39;8961;-58
2024/04/01 09:00:43;;;;;;;;;21.25;16.50;;;;;;;;6491729;31;8969;-59
2024/04/01 09:06:45;;;;;;;;;19.50;16.00;;;;;;;;6490393;46;9043;-57
2024/04/01 09:12:53;;;;;;;;;19.25;17.00;;;;;;;;6490245;46;8901;-56
2024/04/01 09:19:06;;;;;;;;;19.50;15.25;;;;;;;;6492102;31;9026;-59
2024/04/01 09:25:08;;;;;;;;;17.00;15.50;;;;;;;;6489717;39;8940;-59
2024/04/01 09:31:09;;;;;;;;;13.25;11.25;;;;;;;;6487386;39;9051;-58
2024/04/01 09:37:11;;;;;;;;;17.25;14.25;;;;;;;;6489238;31;8938;-58
2024/04/01 09:43:16;;;;;;;;;21.50;16.25;;;;;;;;6488239;39;9600;-56
2024/04/01 09:49:19;;;;;;;;;26.50;24.50;;;;;;;;6488191;39;9524;-57
2024/04/01 09:55:22;;;;;;;;;51.25;41.75;;;;;;;;6490428;31;9054;-60
2024/04/01 10:01:50;;;;;;;;;33.50;31.25;;;;;;;;6489412;31;9019;-59
2024/04/01 10:07:51;;;;;;;;;98.00;88.33;;;;;;;;6489854;39;8975;-59
2024/04/01 10:14:06;;;;;;;;;78.33;66.33;;;;;;;;6491427;31;8939;-59
2024/04/01 10:20:16;;;;;;;;;68.67;52.67;;;;;;;;6488107;39;8955;-60
2024/04/01 10:26:50;;;;;;;;;16.50;15.25;;;;;;;;6488809;39;8977;-58
2024/04/01 10:33:32;;;;;;;;;21.25;17.75;;;;;;;;6487496;31;8974;-58
2024/04/01 10:40:07;;;;;;;;;15.25;14.25;;;;;;;;6489001;39;9067;-59
2024/04/01 10:46:48;;;;;;;;;26.00;26.00;;;;;;;;6486942;46;8928;-60
2024/04/01 10:53:29;;;;;;;;;15.25;15.25;;;;;;;;6489078;39;8923;-60
2024/04/01 10:59:33;;;;;;;;;38.75;31.50;;;;;;;;6487429;46;8917;-59
2024/04/01 11:06:06;;;;;;;;;16.00;13.00;;;;;;;;6485867;39;8931;-59
2024/04/01 11:12:39;;;;;;;;;38.50;33.50;;;;;;;;6488527;31;9009;-59
2024/04/01 11:19:13;;;;;;;;;41.00;36.50;;;;;;;;6488653;31;9031;-58
2024/04/01 11:25:31;;;;;;;;;16.50;13.00;;;;;;;;6489441;39;8991;-60
2024/04/01 11:31:37;;;;;;;;;18.75;16.50;;;;;;;;6489431;39;8957;-59
2024/04/01 11:38:03;;;;;;;;;13.00;10.25;;;;;;;;6490506;39;8934;-59
2024/04/01 11:44:05;;;;;;;;;19.25;19.25;;;;;;;;6489834;39;9701;-59
2024/04/01 11:50:21;;;;;;;;;15.67;13.67;;;;;;;;6490578;39;8919;-59
2024/04/01 11:56:42;;;;;;;;;23.75;20.25;;;;;;;;6489294;39;9667;-60
2024/04/01 12:02:58;;;;;;;;;14.00;13.75;;;;;;;;6488565;46;9021;-60
2024/04/01 12:09:01;;;;;;;;;17.00;15.00;;;;;;;;6490545;31;8956;-60
2024/04/01 12:15:05;;;;;;;;;17.25;14.00;;;;;;;;6490599;31;9057;-59
2024/04/01 12:21:08;;;;;;;;;17.25;12.00;;;;;;;;6490545;39;8879;-60
2024/04/01 12:27:10;;;;;;;;;18.50;18.25;;;;;;;;6490745;39;8941;-60
2024/04/01 12:33:11;;;;;;;;;14.75;12.25;;;;;;;;6489705;39;9125;-61
2024/04/01 12:39:14;;;;;;;;;20.00;15.00;;;;;;;;6489414;39;8909;-60
2024/04/01 12:45:16;;;;;;;;;14.25;12.25;;;;;;;;6490361;39;8931;-59
2024/04/01 12:51:22;;;;;;;;;13.00;12.50;;;;;;;;6490548;39;9024;-60
2024/04/01 12:57:36;;;;;;;;;38.75;33.00;;;;;;;;6489775;47;8999;-62
2024/04/01 13:04:01;;;;;;;;;15.25;12.00;;;;;;;;6489464;39;9117;-59
2024/04/01 13:10:10;;;;;;;;;26.25;22.25;;;;;;;;6489183;47;8941;-60
2024/04/01 13:16:20;;;;;;;;;17.75;13.25;;;;;;;;6490081;31;8883;-59
2024/04/01 13:22:35;;;;;;;;;61.75;49.50;;;;;;;;6488663;31;8964;-59
2024/04/01 13:28:43;;;;;;;;;17.75;14.75;;;;;;;;6490453;39;8942;-59
2024/04/01 13:35:12;;;;;;;;;31.75;29.50;;;;;;;;6491314;39;8950;-59
2024/04/01 13:41:43;;;;;;;;;34.00;30.50;;;;;;;;6490973;39;9619;-58
2024/04/01 13:48:00;;;;;;;;;20.25;16.25;;;;;;;;6489408;31;9536;-59
2024/04/01 13:54:26;;;;;;;;;17.25;14.75;;;;;;;;6492227;39;8937;-59
2024/04/01 14:00:50;;;;;;;;;18.50;14.00;;;;;;;;6491888;39;8940;-59
2024/04/01 14:07:04;;;;;;;;;13.25;8.75;;;;;;;;6492464;31;8999;-60
2024/04/01 14:13:34;;;;;;;;;16.00;15.50;;;;;;;;6491631;46;8899;-57
2024/04/01 14:20:06;;;;;;;;;27.75;25.25;;;;;;;;6491819;39;8929;-59
2024/04/01 14:26:12;;;;;;;;;22.25;15.75;;;;;;;;6491092;46;8944;-58
2024/04/01 14:32:16;;;;;;;;;21.25;16.25;;;;;;;;6490430;46;9008;-56
2024/04/01 14:38:19;;;;;;;;;20.50;17.00;;;;;;;;6491741;31;8925;-59
2024/04/01 14:44:21;;;;;;;;;16.75;14.25;;;;;;;;6491741;39;8943;-58
2024/04/01 14:50:25;;;;;;;;;15.00;12.25;;;;;;;;6491891;39;8917;-59
2024/04/01 14:56:28;;;;;;;;;18.00;14.50;;;;;;;;6491804;39;8932;-58
2024/04/01 15:02:35;;;;;;;;;19.50;16.00;;;;;;;;6490481;46;9076;-59
2024/04/01 15:08:39;;;;;;;;;20.75;15.25;;;;;;;;6491600;39;9671;-59
2024/04/01 15:14:44;;;;;;;;;30.50;23.00;;;;;;;;6491786;39;9520;-59
2024/04/01 15:20:50;;;;;;;;;19.50;16.25;;;;;;;;6490717;46;8988;-58
2024/04/01 15:26:52;;;;;;;;;20.75;17.75;;;;;;;;6489723;39;9477;-58
2024/04/01 15:32:55;;;;;;;;;20.25;15.00;;;;;;;;6491723;31;9087;-60
2024/04/01 15:38:56;;;;;;;;;19.75;15.75;;;;;;;;6490227;31;8888;-55
2024/04/01 15:45:03;;;;;;;;;17.00;15.00;;;;;;;;6490264;46;8950;-57
2024/04/01 15:51:04;;;;;;;;;20.25;10.00;;;;;;;;6491211;39;9013;-58
2024/04/01 15:57:06;;;;;;;;;24.75;21.75;;;;;;;;6490219;46;9026;-57
2024/04/01 16:03:09;;;;;;;;;31.00;25.50;;;;;;;;6490284;46;9077;-59
2024/04/01 16:09:10;;;;;;;;;25.75;20.75;;;;;;;;6490319;47;8961;-54
2024/04/01 16:15:14;;;;;;;;;26.00;23.25;;;;;;;;6490293;39;8935;-55
2024/04/01 16:21:24;;;;;;;;;26.00;22.25;;;;;;;;6489687;39;9030;-56
2024/04/01 16:27:31;;;;;;;;;25.00;23.25;;;;;;;;6490967;31;8881;-53
2024/04/01 16:33:35;;;;;;;;;25.50;21.50;;;;;;;;6490934;39;9026;-55
2024/04/01 16:39:40;;;;;;;;;25.25;19.25;;;;;;;;6490663;47;8907;-57
2024/04/01 16:45:42;;;;;;;;;46.67;35.00;;;;;;;;6490375;39;8922;-55
2024/04/01 16:51:43;;;;;;;;;54.00;39.67;;;;;;;;6490825;31;8922;-55
2024/04/01 16:57:46;;;;;;;;;46.67;39.00;;;;;;;;6492903;39;8842;-55
2024/04/01 17:03:48;;;;;;;;;40.25;33.50;;;;;;;;6492260;46;8959;-55
2024/04/01 17:09:50;;;;;;;;;36.25;28.00;;;;;;;;6492098;46;8866;-56
2024/04/01 17:15:53;;;;;;;;;30.00;29.25;;;;;;;;6492982;31;8860;-56
2024/04/01 17:22:00;;;;;;;;;35.67;28.33;;;;;;;;6492343;39;8883;-57
2024/04/01 17:28:04;;;;;;;;;39.67;31.00;;;;;;;;6492296;39;8975;-56
2024/04/01 17:34:06;;;;;;;;;37.33;33.00;;;;;;;;6492462;46;9026;-53
2024/04/01 17:40:12;;;;;;;;;43.33;33.33;;;;;;;;6492207;46;8872;-56
2024/04/01 17:46:13;;;;;;;;;44.67;35.33;;;;;;;;6492512;39;8878;-56
2024/04/01 17:52:14;;;;;;;;;49.67;37.67;;;;;;;;6492098;46;8887;-57
2024/04/01 17:58:18;;;;;;;;;51.33;40.00;;;;;;;;6492584;39;8886;-58
2024/04/01 18:04:20;;;;;;;;;49.33;38.67;;;;;;;;6492003;31;9699;-53
2024/04/01 18:10:24;;;;;;;;;50.67;41.00;;;;;;;;6493025;39;9026;-56
2024/04/01 18:16:28;;;;;;;;;50.33;38.67;;;;;;;;6490413;39;8954;-56
2024/04/01 18:22:30;;;;;;;;;49.67;39.00;;;;;;;;6491138;31;8952;-54
2024/04/01 18:28:31;;;;;;;;;43.00;36.33;;;;;;;;6491164;39;8996;-54
2024/04/01 18:34:33;;;;;;;;;44.33;34.67;;;;;;;;6490783;31;8889;-57
2024/04/01 18:40:37;;;;;;;;;41.67;35.67;;;;;;;;6490911;31;8947;-54
2024/04/01 18:46:38;;;;;;;;;39.00;34.67;;;;;;;;6490366;31;8960;-54
2024/04/01 18:52:39;;;;;;;;;39.67;33.33;;;;;;;;6490120;46;9042;-54
2024/04/01 18:58:40;;;;;;;;;39.67;30.33;;;;;;;;6490717;46;9018;-54
2024/04/01 19:04:43;;;;;;;;;36.67;31.67;;;;;;;;6490962;46;8971;-53
2024/04/01 19:10:44;;;;;;;;;35.33;31.67;;;;;;;;6491207;39;8922;-54
2024/04/01 19:16:45;;;;;;;;;33.33;29.33;;;;;;;;6490939;39;8943;-56
2024/04/01 19:22:46;;;;;;;;;37.00;32.33;;;;;;;;6490807;31;9007;-57
2024/04/01 19:28:49;;;;;;;;;39.67;33.67;;;;;;;;6490811;39;9003;-55
2024/04/01 19:34:50;;;;;;;;;48.00;35.33;;;;;;;;6491106;39;9567;-56
2024/04/01 19:40:56;;;;;;;;;40.33;30.00;;;;;;;;6490780;46;8915;-56
2024/04/01 19:46:57;;;;;;;;;34.00;30.00;;;;;;;;6490874;39;9033;-55
2024/04/01 19:53:01;;;;;;;;;37.33;32.67;;;;;;;;6490844;31;8942;-56
2024/04/01 19:59:22;;;;;;;;;39.33;32.00;;;;;;;;6490715;46;8898;-57
2024/04/01 20:05:27;;;;;;;;;41.67;36.00;;;;;;;;6488573;31;9771;-54
2024/04/01 20:11:29;;;;;;;;;37.67;31.00;;;;;;;;6489444;47;8957;-53
2024/04/01 20:17:32;;;;;;;;;38.00;29.00;;;;;;;;6489261;47;8885;-56
2024/04/01 20:23:35;;;;;;;;;35.33;31.00;;;;;;;;6489199;47;8851;-56
2024/04/01 20:29:37;;;;;;;;;40.33;35.00;;;;;;;;6490811;46;8971;-54
2024/04/01 20:35:39;;;;;;;;;39.67;30.33;;;;;;;;6491253;46;8974;-56
2024/04/01 20:41:40;;;;;;;;;31.00;28.67;;;;;;;;6492274;39;8900;-55
2024/04/01 20:47:44;;;;;;;;;30.67;28.67;;;;;;;;6492645;31;8870;-56
2024/04/01 20:53:46;;;;;;;;;36.00;29.67;;;;;;;;6491409;39;8962;-55
2024/04/01 20:59:48;;;;;;;;;30.00;25.67;;;;;;;;6491274;46;8875;-55
2024/04/01 21:05:49;;;;;;;;;29.67;27.00;;;;;;;;6490997;31;8960;-53
2024/04/01 21:11:50;;;;;;;;;31.00;25.00;;;;;;;;6490887;39;9031;-54
2024/04/01 21:17:51;;;;;;;;;23.00;21.33;;;;;;;;6491531;46;8980;-53
2024/04/01 21:23:55;;;;;;;;;31.67;23.67;;;;;;;;6492078;39;8934;-55
2024/04/01 21:29:56;;;;;;;;;30.00;27.33;;;;;;;;6492335;31;9732;-54
2024/04/01 21:35:59;;;;;;;;;33.67;29.67;;;;;;;;6491369;39;8870;-55
2024/04/01 21:42:00;;;;;;;;;34.00;28.67;;;;;;;;6491984;31;9816;-55
2024/04/01 21:48:02;;;;;;;;;36.00;30.33;;;;;;;;6491293;31;9042;-57
2024/04/01 21:54:03;;;;;;;;;32.00;27.33;;;;;;;;6491160;39;9045;-56
2024/04/01 22:00:24;;;;;;;;;33.67;27.67;;;;;;;;6490225;31;9086;-55
2024/04/01 22:06:26;;;;;;;;;34.33;31.67;;;;;;;;6490397;46;9056;-54
2024/04/01 22:12:27;;;;;;;;;31.33;29.33;;;;;;;;6491317;39;9014;-55
2024/04/01 22:18:31;;;;;;;;;29.67;27.33;;;;;;;;6491592;31;8915;-52
2024/04/01 22:24:32;;;;;;;;;32.33;29.00;;;;;;;;6491456;39;8969;-52
2024/04/01 22:30:33;;;;;;;;;29.00;25.33;;;;;;;;6492181;39;8938;-55
2024/04/01 22:36:35;;;;;;;;;30.67;24.33;;;;;;;;6493148;39;8894;-52
2024/04/01 22:42:38;;;;;;;;;30.67;25.33;;;;;;;;6492303;39;8995;-54
2024/04/01 22:48:40;;;;;;;;;28.33;23.00;;;;;;;;6492096;39;8874;-53
2024/04/01 22:54:43;;;;;;;;;36.33;30.67;;;;;;;;6492684;39;9003;-54
2024/04/01 23:00:45;;;;;;;;;35.33;28.67;;;;;;;;6491967;39;8874;-54
2024/04/01 23:06:48;;;;;;;;;31.33;29.00;;;;;;;;6491655;46;9090;-49
2024/04/01 23:12:51;;;;;;;;;34.00;30.33;;;;;;;;6491393;39;8858;-53
2024/04/01 23:18:52;;;;;;;;;33.50;29.00;;;;;;;;6491552;39;9022;-54
2024/04/01 23:24:53;;;;;;;;;31.67;29.33;;;;;;;;6491712;39;9015;-52
2024/04/01 23:30:54;;;;;;;;;40.33;32.67;;;;;;;;6491563;39;8876;-57
2024/04/01 23:36:58;;;;;;;;;37.33;30.33;;;;;;;;6491364;46;8925;-55
2024/04/01 23:42:59;;;;;;;;;35.67;32.00;;;;;;;;6491685;39;9579;-53
2024/04/01 23:49:00;;;;;;;;;35.33;30.00;;;;;;;;6491037;46;8862;-53
2024/04/01 23:55:01;;;;;;;;;34.00;30.33;;;;;;;;6491118;39;8881;-52
